Wan Hai 508 — 9VJJ6 — position and weather

sailwx.info

Track history (hours):
 
Tides and Currents Weather Stations Pressure Air Temp Water Temp Dewpoint Dewpoint Depression Visibility Wind Speed Wind Dir Waves Ship Positions

Wan Hai 508

Last reported at 2014-Sep-28 23:27 UTC. Time now 2014-Oct-23 04:39 UTC.
Position N 01°14' E 103°27'.
Warning: this ship's position is 24 days out of date.

Length 269 m; draft 12.2 m.

Type: Ship. MMSI: 565567000.

Date/timePositionNaut miles runAvg speedWind from/ knotsBaromVisibWave heightAir tempDewpointWater temp
2014-Sep-28 23:27N 01°14' E 103°27'1314.1
2014-Sep-28 22:33N 01°13' E 103°40'8 7.5
2014-Sep-28 21:32N 01°17' E 103°46'0 0.0
2014-Sep-28 20:31N 01°17' E 103°46'0 0.0
2014-Sep-28 19:31N 01°17' E 103°46'0 0.0
2014-Sep-28 18:31N 01°17' E 103°46'0 0.0
2014-Sep-28 17:31N 01°17' E 103°46'0 0.0
2014-Sep-28 16:31N 01°17' E 103°46'0 0.0
2014-Sep-28 15:31N 01°17' E 103°46'0 0.0
2014-Sep-28 14:31N 01°17' E 103°46'0 0.0
2014-Sep-28 13:28N 01°17' E 103°46'0 0.0
2014-Sep-28 12:31N 01°17' E 103°46'0 0.0
2014-Sep-28 11:31N 01°17' E 103°46'0 0.0
2014-Sep-28 10:31N 01°17' E 103°46'0 0.0
2014-Sep-28 09:31N 01°17' E 103°46'0 0.0
2014-Sep-28 08:31N 01°17' E 103°46'0 0.0
2014-Sep-28 07:31N 01°17' E 103°46'0 0.0
2014-Sep-28 06:28N 01°17' E 103°46'0 0.1
2014-Sep-28 05:33N 01°17' E 103°46'4 3.7
2014-Sep-28 04:33N 01°14' E 103°47'8 8.3
2014-Sep-28 03:33N 01°14' E 103°56'8 8.1
2014-Sep-28 02:33N 01°16' E 104°03'  
2014-Sep-24 16:16N 22°02' E 114°03'1710.1
2014-Sep-24 14:33N 22°19' E 114°06'2 0.2
2014-Sep-24 05:33N 22°19' E 114°08'3 1.4
2014-Sep-24 03:24N 22°20' E 114°04'0 0.2
2014-Sep-24 02:30N 22°20' E 114°04'0 0.1
2014-Sep-24 01:30N 22°20' E 114°04'0 0.0
2014-Sep-24 00:30N 22°20' E 114°04'0 0.0
2014-Sep-23 23:24N 22°20' E 114°04'9 8.0
2014-Sep-23 22:14N 22°22' E 113°54'5 7.0
2014-Sep-23 21:33N 22°27' E 113°53'0 0.2
2014-Sep-23 20:25N 22°27' E 113°53'0 0.0
2014-Sep-23 19:13N 22°27' E 113°53'0 0.0
2014-Sep-23 18:25N 22°27' E 113°53'0 0.0
2014-Sep-23 17:31N 22°27' E 113°53'0 0.0
2014-Sep-23 16:31N 22°27' E 113°53'0 0.0
2014-Sep-23 15:31N 22°27' E 113°53'0 0.0
2014-Sep-23 14:31N 22°27' E 113°53'0 0.0
2014-Sep-23 13:31N 22°27' E 113°53'0 0.0
2014-Sep-23 12:31N 22°27' E 113°53'0 0.0
2014-Sep-23 11:31N 22°27' E 113°53'0 0.0
2014-Sep-23 10:31N 22°27' E 113°53'2 2.4
2014-Sep-23 09:33N 22°25' E 113°54'11 8.9
2014-Sep-23 08:16N 22°20' E 114°05'810.8
2014-Sep-23 07:32N 22°13' E 114°10'19 8.6
2014-Sep-23 05:20N 22°08' E 114°29'30219.1
2014-Sep-22 13:32N 22°31' E 119°55'1917.3
2014-Sep-22 12:28N 22°33' E 120°15'5 4.6
2014-Sep-22 11:27N 22°33' E 120°20'0 0.0
2014-Sep-22 10:18N 22°33' E 120°20'0 0.0
2014-Sep-22 09:30N 22°33' E 120°20'0 0.0
2014-Sep-22 08:24N 22°33' E 120°20'0 0.0
2014-Sep-22 07:30N 22°33' E 120°20'0 0.0
2014-Sep-22 06:30N 22°33' E 120°20'0 0.0
2014-Sep-22 05:33N 22°33' E 120°20'0 0.0
2014-Sep-22 04:33N 22°33' E 120°20'11 0.6
2014-Sep-21 12:14N 22°31' E 120°09'1 2.1
2014-Sep-21 11:33N 22°32' E 120°07'2 2.1
2014-Sep-21 10:33N 22°34' E 120°06'7 6.9
2014-Sep-21 09:33N 22°39' E 120°01'10 9.7
2014-Sep-21 08:33N 22°46' E 119°53'10 9.6
2014-Sep-21 07:33N 22°52' E 119°46'419 8.2
2014-Sep-19 04:31N 29°25' E 122°27'1414.2
2014-Sep-19 03:32N 29°38' E 122°22'1110.9
2014-Sep-19 02:33N 29°48' E 122°15'1212.5
2014-Sep-19 01:33N 29°55' E 122°04'10 8.7
2014-Sep-19 00:23N 29°56' E 121°52'  
Track history (hours):
 
Tides and Currents Weather Stations Pressure Air Temp Water Temp Dewpoint Dewpoint Depression Visibility Wind Speed Wind Dir Waves Ship Positions

Wan Hai 508

Last reported at 2014-Sep-28 23:27 UTC. Time now 2014-Oct-23 04:39 UTC.
Position N 01°14' E 103°27'.
Warning: this ship's position is 24 days out of date.

Length 269 m; draft 12.2 m.

Type: Ship. MMSI: 565567000.

Date/timePositionNaut miles runAvg speedWind from/ knotsBaromVisibWave heightAir tempDewpointWater temp
2014-Sep-28 23:27N 01°14' E 103°27'1314.1
2014-Sep-28 22:33N 01°13' E 103°40'8 7.5
2014-Sep-28 21:32N 01°17' E 103°46'0 0.0
2014-Sep-28 20:31N 01°17' E 103°46'0 0.0
2014-Sep-28 19:31N 01°17' E 103°46'0 0.0
2014-Sep-28 18:31N 01°17' E 103°46'0 0.0
2014-Sep-28 17:31N 01°17' E 103°46'0 0.0
2014-Sep-28 16:31N 01°17' E 103°46'0 0.0
2014-Sep-28 15:31N 01°17' E 103°46'0 0.0
2014-Sep-28 14:31N 01°17' E 103°46'0 0.0
2014-Sep-28 13:28N 01°17' E 103°46'0 0.0
2014-Sep-28 12:31N 01°17' E 103°46'0 0.0
2014-Sep-28 11:31N 01°17' E 103°46'0 0.0
2014-Sep-28 10:31N 01°17' E 103°46'0 0.0
2014-Sep-28 09:31N 01°17' E 103°46'0 0.0
2014-Sep-28 08:31N 01°17' E 103°46'0 0.0
2014-Sep-28 07:31N 01°17' E 103°46'0 0.0
2014-Sep-28 06:28N 01°17' E 103°46'0 0.1
2014-Sep-28 05:33N 01°17' E 103°46'4 3.7
2014-Sep-28 04:33N 01°14' E 103°47'8 8.3
2014-Sep-28 03:33N 01°14' E 103°56'8 8.1
2014-Sep-28 02:33N 01°16' E 104°03'  
2014-Sep-24 16:16N 22°02' E 114°03'1710.1
2014-Sep-24 14:33N 22°19' E 114°06'2 0.2
2014-Sep-24 05:33N 22°19' E 114°08'3 1.4
2014-Sep-24 03:24N 22°20' E 114°04'0 0.2
2014-Sep-24 02:30N 22°20' E 114°04'0 0.1
2014-Sep-24 01:30N 22°20' E 114°04'0 0.0
2014-Sep-24 00:30N 22°20' E 114°04'0 0.0
2014-Sep-23 23:24N 22°20' E 114°04'9 8.0
2014-Sep-23 22:14N 22°22' E 113°54'5 7.0
2014-Sep-23 21:33N 22°27' E 113°53'0 0.2
2014-Sep-23 20:25N 22°27' E 113°53'0 0.0
2014-Sep-23 19:13N 22°27' E 113°53'0 0.0
2014-Sep-23 18:25N 22°27' E 113°53'0 0.0
2014-Sep-23 17:31N 22°27' E 113°53'0 0.0
2014-Sep-23 16:31N 22°27' E 113°53'0 0.0
2014-Sep-23 15:31N 22°27' E 113°53'0 0.0
2014-Sep-23 14:31N 22°27' E 113°53'0 0.0
2014-Sep-23 13:31N 22°27' E 113°53'0 0.0
2014-Sep-23 12:31N 22°27' E 113°53'0 0.0
2014-Sep-23 11:31N 22°27' E 113°53'0 0.0
2014-Sep-23 10:31N 22°27' E 113°53'2 2.4
2014-Sep-23 09:33N 22°25' E 113°54'11 8.9
2014-Sep-23 08:16N 22°20' E 114°05'810.8
2014-Sep-23 07:32N 22°13' E 114°10'19 8.6
2014-Sep-23 05:20N 22°08' E 114°29'30219.1
2014-Sep-22 13:32N 22°31' E 119°55'1917.3
2014-Sep-22 12:28N 22°33' E 120°15'5 4.6
2014-Sep-22 11:27N 22°33' E 120°20'0 0.0
2014-Sep-22 10:18N 22°33' E 120°20'0 0.0
2014-Sep-22 09:30N 22°33' E 120°20'0 0.0
2014-Sep-22 08:24N 22°33' E 120°20'0 0.0
2014-Sep-22 07:30N 22°33' E 120°20'0 0.0
2014-Sep-22 06:30N 22°33' E 120°20'0 0.0
2014-Sep-22 05:33N 22°33' E 120°20'0 0.0
2014-Sep-22 04:33N 22°33' E 120°20'11 0.6
2014-Sep-21 12:14N 22°31' E 120°09'1 2.1
2014-Sep-21 11:33N 22°32' E 120°07'2 2.1
2014-Sep-21 10:33N 22°34' E 120°06'7 6.9
2014-Sep-21 09:33N 22°39' E 120°01'10 9.7
2014-Sep-21 08:33N 22°46' E 119°53'10 9.6
2014-Sep-21 07:33N 22°52' E 119°46'419 8.2
2014-Sep-19 04:31N 29°25' E 122°27'1414.2
2014-Sep-19 03:32N 29°38' E 122°22'1110.9
2014-Sep-19 02:33N 29°48' E 122°15'1212.5
2014-Sep-19 01:33N 29°55' E 122°04'10 8.7
2014-Sep-19 00:23N 29°56' E 121°52'  

Dump ship's entire track history